Lake Charles, LA

1:44 AM CST on February 10, 2016 (GMT -0600)
Lake Charles Regional | | Change Station
CLOSE
Current Station
Airport
Location: Lake Charles Regional,
Elevation: 7 ft
Nearby Weather Stations

Elev 7 ft 30.13 °N, 93.22 °W | Updated 51 minutes ago

Clear
Clear
40 °F
Feels Like 37 °F
N
5
Wind Variable Wind from NNW

Today
High -- | Low -- °F
--% Chance of Precip.
Yesterday
High -- | Low -- °F
Precip. -- in
Pressure 30.32 in
Visibility 10.0 miles
Clouds Clear
Windchill 37 °F
Dew Point 32 °F
Humidity 73%
Rainfall 0.00 in
Snow Depth Not available.
6:57 AM 5:57 PM
Waxing Crescent, 4% visible
METAR KLCH 100653Z 33004KT 10SM CLR 04/00 A3029 RMK AO2 SLP265 T00440000
Pressure 30.32 in
Visibility 10.0 miles
Clouds Clear
Windchill 37 °F
Dew Point 32 °F
Humidity 73%
Rainfall 0.00 in
Snow Depth Not available.
6:57 AM 5:57 PM
Waxing Crescent, 4% visible
METAR KLCH 100653Z 33004KT 10SM CLR 04/00 A3029 RMK AO2 SLP265 T00440000

10-Day Weather Forecast

Almanac

Astronomy

Feb. 10, 2016 Rise Set
Actual Time
Civil Twilight
Nautical Twilight
Astronomical Twilight
Moon
Length of Visible Light
Length of Day
Tomorrow will be .
, % of the Moon is Illuminated

Today's Extremes

State Highs State Lows

Community

WunderPhotos

Upload Photos

1,891,826 photos uploaded!

WunderBlog® & News

Nearby

Air Quality

  Air Quality AQ Index Pollutant
Not available.

Snow Depth

Station Depth Elevation

Earthquake Activity

City Distance Mag. Time & Date
Minimum magnitude displayed is 2.5.

Coastal Water Temperatures

Place Temperature

Stations

Nearby Weather Stations

Station Location Temp. Windchill Dew Point Humidity Wind Precip. Elev Updated Type
                   

Watches & Warnings

There are currently no watches in effect.